Nearby METAR Reports

Here are local weather reports from nearby weather stations and airports.

KHFD - Hartford/Brainar, Connecticut, USA
Distance from station: NE 5mi, 8km
Updated: Thu, 02/23/2017 9:53pm EST
Mist, Clear
Mist, Clear
 Wind from calm
Wind: Calm
Temperature: 48°F , 9°C
Dew Point: 46°F , 8°C
Humidity: 94%
Barometer: 29.89 inHg , 1012.2 hPa
Summary: Mist
Clouds: Clear
Visibility: 5 miles , 8 km
2017/02/24 02:53 KHFD 240253Z 00000KT 5SM BR CLR 09/08 A2989 RMK AO2 SLP121 T00940083 53013
KMMK - Meriden, Connecticut, USA
Distance from station: SSW 13mi, 21km
Updated: Thu, 02/23/2017 10:04pm EST
Mist, Mostly cloudy
Mist, Mostly cloudy
 Wind from calm
Wind: Calm
Temperature: 46°F , 8°C
Dew Point: 45°F , 7°C
Humidity: 93%
Barometer: 29.90 inHg , 1012.5 hPa
Summary: Mist
Clouds: Mostly cloudy
Visibility: 2 1/2 miles , 2 km
Cloud details: Mostly cloudy 6500 ft
2017/02/24 03:04 KMMK 240304Z AUTO 00000KT 2 1/2SM BR BKN065 08/07 A2990 RMK AO2 T00830067 TSNO
 
KBDL - Windsor Locks, Connecticut, USA
Distance from station: N 17mi, 28km
Updated: Thu, 02/23/2017 9:51pm EST
Mist, Few clouds
Mist, Few clouds
 Wind from S
Wind: S 7 mph , 11 km/h
Temperature: 48°F , 9°C
Wind Chill: 45°F , 7°C
Dew Point: 46°F , 8°C
Humidity: 94%
Barometer: 29.87 inHg , 1011.5 hPa
Summary: Mist
Clouds: Few Clouds
Visibility: 6 miles , 10 km
Cloud details: Few Clouds 7000 ft
2017/02/24 02:51 KBDL 240251Z 17006KT 6SM BR FEW070 09/08 A2987 RMK AO2 SLP116 T00940083 53013
KSNC - Chester, Connecticut, USA
Distance from station: SSE 24mi, 38km
Updated: Thu, 02/23/2017 10:15pm EST
Overcast
Overcast
 Wind from SW
Wind: SW 7 mph , 11 km/h
Temperature: 52°F , 11°C
Dew Point: 48°F , 9°C
Humidity: 88%
Barometer: 29.91 inHg , 1012.9 hPa
Clouds: Overcast
Visibility: 10 miles , 16 km
Cloud details: Mostly cloudy 6000 ft
Overcast 7000 ft
2017/02/24 03:15 KSNC 240315Z AUTO 22006KT 10SM BKN060 OVC070 11/09 A2991 RMK AO2
 
KOXC - Oxford/Waterbury, Connecticut, USA
Distance from station: SW 26mi, 42km
Updated: Thu, 02/23/2017 10:15pm EST
Partly cloudy
Partly cloudy
 Wind from calm
Wind: Calm
Temperature: 50°F , 10°C
Dew Point: 45°F , 7°C
Humidity: 82%
Barometer: 29.91 inHg , 1012.9 hPa
Clouds: Partly cloudy
Visibility: 9 miles , 14 km
Cloud details: Few Clouds 4900 ft
Partly cloudy 7000 ft
2017/02/24 03:15 KOXC 240315Z AUTO 00000KT 9SM FEW049 SCT070 10/07 A2991 RMK AO1
KIJD - Willimantic, Connecticut, USA
Distance from station: E 28mi, 45km
Updated: Thu, 02/23/2017 9:52pm EST
Clear
Clear
 Wind from calm
Wind: Calm
Temperature: 46°F , 8°C
Dew Point: 45°F , 7°C
Humidity: 93%
Barometer: 29.90 inHg , 1012.5 hPa
Clouds: Clear
Visibility: 7 miles , 11 km
2017/02/24 02:52 KIJD 240252Z AUTO 00000KT 7SM CLR 08/07 A2990 RMK AO2 SLP125 T00780067 53011
 
KHVN - New Haven/Tweed, Connecticut, USA
Distance from station: SSW 30mi, 48km
Updated: Thu, 02/23/2017 9:53pm EST
Mist, Overcast
Mist, Overcast
 Wind from calm
Wind: Calm
Temperature: 46°F , 8°C
Dew Point: 45°F , 7°C
Humidity: 93%
Barometer: 29.90 inHg , 1012.5 hPa
Summary: Mist
Clouds: Overcast
Visibility: 5 miles , 8 km
Cloud details: Overcast 7000 ft
2017/02/24 02:53 KHVN 240253Z 00000KT 5SM BR OVC070 08/07 A2990 RMK AO2 SLP124 T00780072 53006
KBAF - Westfield, Massachusetts, USA
Distance from station: 0 33mi, 54km
Updated: Thu, 02/23/2017 9:53pm EST
Clear
Clear
 Wind from calm
Wind: Calm
Temperature: 46°F , 8°C
Dew Point: 46°F , 8°C
Humidity: 100%
Barometer: 29.86 inHg , 1011.2 hPa
Clouds: Clear
Visibility: 7 miles , 11 km
2017/02/24 02:53 KBAF 240253Z 00000KT 7SM CLR 08/08 A2986 RMK AO2 SLP113 T00830078 51016
 
KCEF - Chicopee/Westove, Massachusetts, USA
Distance from station: NNE 37mi, 60km
Updated: Thu, 02/23/2017 10:31pm EST
Mist, Clear
Mist, Clear
 Wind from SSE
Wind: SSE 5 mph , 7 km/h
Temperature: 45°F , 7°C
Wind Chill: 42°F , 6°C
Dew Point: 45°F , 7°C
Humidity: 100%
Barometer: 29.85 inHg , 1010.8 hPa
Summary: Mist
Clouds: Clear
Visibility: 1 3/4 miles , 5 km
2017/02/24 03:31 KCEF 240331Z AUTO 15004KT 1 3/4SM R23/5000FT BR CLR 07/07 A2985 RMK AO2 VIS 1 1/4V3
KBDR - Bridgeport, Connecticut, USA
Distance from station: SSW 42mi, 67km
Updated: Thu, 02/23/2017 9:52pm EST
Mist, Mostly cloudy
Mist, Mostly cloudy
 Wind from E
Wind: E 3 mph , 6 km/h
Temperature: 46°F , 8°C
Dew Point: 43°F , 6°C
Humidity: 87%
Barometer: 29.90 inHg , 1012.5 hPa
Summary: Mist
Clouds: Mostly cloudy
Visibility: 6 miles , 10 km
Cloud details: Partly cloudy 6000 ft
Mostly cloudy 7500 ft
Mostly cloudy 8500 ft
2017/02/24 02:52 KBDR 240252Z 09003KT 6SM BR SCT060 BKN075 BKN085 08/06 A2990 RMK AO2 SLP123 T00830061 53006
 
KGON - Groton/New Londo, Connecticut, USA
Distance from station: SE 42mi, 68km
Updated: Thu, 02/23/2017 9:56pm EST
Mostly cloudy
Mostly cloudy
 Wind from S
Wind: S 3 mph , 6 km/h
Temperature: 43°F , 6°C
Dew Point: 43°F , 6°C
Humidity: 100%
Barometer: 29.91 inHg , 1012.9 hPa
Clouds: Mostly cloudy
Visibility: 7 miles , 11 km
Cloud details: Mostly cloudy 7000 ft
2017/02/24 02:56 KGON 240256Z 19003KT 7SM BKN070 06/06 A2991 RMK AO2 SLP128 T00610056 51007
KDXR - Danbury, Connecticut, USA
Distance from station: WSW 45mi, 73km
Updated: Thu, 02/23/2017 9:53pm EST
Partly cloudy
Partly cloudy
 Wind from calm
Wind: Calm
Temperature: 46°F , 8°C
Dew Point: 43°F , 6°C
Humidity: 87%
Barometer: 29.90 inHg , 1012.5 hPa
Clouds: Partly cloudy
Visibility: 9 miles , 14 km
Cloud details: Partly cloudy 7500 ft
2017/02/24 02:53 KDXR 240253Z 00000KT 9SM SCT075 08/06 A2990 RMK AO2 SLP124 T00780061 52013